sensor_id;sensor_type;location;lat;lon;timestamp;pressure;altitude;pressure_sealevel;temperature;humidity
38620;BME280;24376;51.986;4.662;2022-10-16T00:00:56;105607.78;;;13.54;100.00
38620;BME280;24376;51.986;4.662;2022-10-16T00:03:21;105630.31;;;13.61;100.00
38620;BME280;24376;51.986;4.662;2022-10-16T00:05:46;105626.91;;;13.62;100.00
38620;BME280;24376;51.986;4.662;2022-10-16T00:08:11;105635.59;;;13.61;100.00
38620;BME280;24376;51.986;4.662;2022-10-16T00:10:37;105633.13;;;13.63;100.00
38620;BME280;24376;51.986;4.662;2022-10-16T00:13:03;105635.59;;;13.61;100.00
38620;BME280;24376;51.986;4.662;2022-10-16T00:15:28;105636.69;;;13.63;100.00
38620;BME280;24376;51.986;4.662;2022-10-16T00:17:53;105627.84;;;13.63;100.00
38620;BME280;24376;51.986;4.662;2022-10-16T00:20:19;105642.59;;;13.61;100.00
38620;BME280;24376;51.986;4.662;2022-10-16T00:22:44;105646.50;;;13.55;100.00
38620;BME280;24376;51.986;4.662;2022-10-16T00:25:09;105675.47;;;13.55;100.00
38620;BME280;24376;51.986;4.662;2022-10-16T00:27:34;105697.75;;;13.59;100.00
38620;BME280;24376;51.986;4.662;2022-10-16T00:29:59;105734.28;;;13.65;100.00
38620;BME280;24376;51.986;4.662;2022-10-16T00:32:25;105713.91;;;13.72;100.00
38620;BME280;24376;51.986;4.662;2022-10-16T00:34:50;105704.81;;;13.79;100.00
38620;BME280;24376;51.986;4.662;2022-10-16T00:37:15;105771.13;;;13.83;100.00
38620;BME280;24376;51.986;4.662;2022-10-16T00:39:40;105900.81;;;13.71;100.00
38620;BME280;24376;51.986;4.662;2022-10-16T00:42:05;106061.25;;;13.68;100.00
38620;BME280;24376;51.986;4.662;2022-10-16T00:44:42;106161.69;;;13.62;100.00
38620;BME280;24376;51.986;4.662;2022-10-16T00:47:11;106270.34;;;13.60;100.00
38620;BME280;24376;51.986;4.662;2022-10-16T00:49:37;106419.59;;;13.59;100.00
38620;BME280;24376;51.986;4.662;2022-10-16T00:52:03;106513.94;;;13.54;100.00
38620;BME280;24376;51.986;4.662;2022-10-16T00:54:29;106577.78;;;13.52;100.00
38620;BME280;24376;51.986;4.662;2022-10-16T00:56:55;106632.00;;;13.50;100.00
38620;BME280;24376;51.986;4.662;2022-10-16T00:59:32;106696.78;;;13.48;100.00
38620;BME280;24376;51.986;4.662;2022-10-16T01:01:58;106793.47;;;13.49;100.00
38620;BME280;24376;51.986;4.662;2022-10-16T01:04:24;106858.81;;;13.44;100.00
38620;BME280;24376;51.986;4.662;2022-10-16T01:14:11;107206.94;;;13.47;100.00
38620;BME280;24376;51.986;4.662;2022-10-16T01:16:49;107154.47;;;13.42;100.00
38620;BME280;24376;51.986;4.662;2022-10-16T01:21:59;107390.28;;;13.31;100.00
38620;BME280;24376;51.986;4.662;2022-10-16T01:24:48;107435.66;;;13.28;100.00
38620;BME280;24376;51.986;4.662;2022-10-16T01:29:44;107509.78;;;13.24;100.00
38620;BME280;24376;51.986;4.662;2022-10-16T01:34:42;107501.28;;;13.27;100.00
38620;BME280;24376;51.986;4.662;2022-10-16T01:37:12;107635.59;;;13.20;100.00
38620;BME280;24376;51.986;4.662;2022-10-16T01:39:40;107606.63;;;13.13;100.00
38620;BME280;24376;51.986;4.662;2022-10-16T01:42:17;107628.81;;;13.08;100.00
38620;BME280;24376;51.986;4.662;2022-10-16T01:44:43;107626.16;;;13.00;100.00
38620;BME280;24376;51.986;4.662;2022-10-16T01:47:10;107614.13;;;12.95;100.00
38620;BME280;24376;51.986;4.662;2022-10-16T01:49:38;107638.75;;;12.89;100.00
38620;BME280;24376;51.986;4.662;2022-10-16T01:52:05;107611.84;;;12.84;100.00
38620;BME280;24376;51.986;4.662;2022-10-16T01:54:31;107645.88;;;12.83;100.00
38620;BME280;24376;51.986;4.662;2022-10-16T01:56:58;107639.28;;;12.79;100.00
38620;BME280;24376;51.986;4.662;2022-10-16T01:59:25;107673.84;;;12.75;100.00
38620;BME280;24376;51.986;4.662;2022-10-16T02:01:55;107668.97;;;12.71;100.00
38620;BME280;24376;51.986;4.662;2022-10-16T02:04:24;107720.09;;;12.73;100.00
38620;BME280;24376;51.986;4.662;2022-10-16T02:06:52;107719.75;;;12.77;100.00
38620;BME280;24376;51.986;4.662;2022-10-16T02:09:17;107737.41;;;12.78;100.00
38620;BME280;24376;51.986;4.662;2022-10-16T02:11:43;107741.19;;;12.80;100.00
38620;BME280;24376;51.986;4.662;2022-10-16T02:14:08;107744.38;;;12.77;100.00
38620;BME280;24376;51.986;4.662;2022-10-16T02:16:35;107746.06;;;12.77;100.00
38620;BME280;24376;51.986;4.662;2022-10-16T02:19:00;107751.69;;;12.80;100.00
38620;BME280;24376;51.986;4.662;2022-10-16T02:21:26;107739.47;;;12.81;100.00
38620;BME280;24376;51.986;4.662;2022-10-16T02:23:55;107742.13;;;12.81;100.00
38620;BME280;24376;51.986;4.662;2022-10-16T02:26:29;107728.59;;;12.85;100.00
38620;BME280;24376;51.986;4.662;2022-10-16T02:28:57;107700.06;;;12.88;100.00
38620;BME280;24376;51.986;4.662;2022-10-16T02:31:26;107656.25;;;12.88;100.00
38620;BME280;24376;51.986;4.662;2022-10-16T02:33:52;107647.59;;;12.89;100.00
38620;BME280;24376;51.986;4.662;2022-10-16T02:36:19;107622.19;;;12.90;100.00
38620;BME280;24376;51.986;4.662;2022-10-16T02:38:45;107631.03;;;12.90;100.00
38620;BME280;24376;51.986;4.662;2022-10-16T02:41:11;107639.34;;;12.93;100.00
38620;BME280;24376;51.986;4.662;2022-10-16T02:43:37;107616.34;;;12.92;100.00
38620;BME280;24376;51.986;4.662;2022-10-16T02:46:02;107588.34;;;12.93;100.00
38620;BME280;24376;51.986;4.662;2022-10-16T02:48:27;107575.56;;;12.96;100.00
38620;BME280;24376;51.986;4.662;2022-10-16T02:50:52;107556.97;;;12.94;100.00
38620;BME280;24376;51.986;4.662;2022-10-16T02:53:18;107522.53;;;12.93;100.00
38620;BME280;24376;51.986;4.662;2022-10-16T02:55:43;107516.31;;;12.92;100.00
38620;BME280;24376;51.986;4.662;2022-10-16T02:58:09;107502.44;;;12.93;100.00
38620;BME280;24376;51.986;4.662;2022-10-16T03:00:34;107478.72;;;12.86;100.00
38620;BME280;24376;51.986;4.662;2022-10-16T03:02:59;107464.06;;;12.81;100.00
38620;BME280;24376;51.986;4.662;2022-10-16T03:05:24;107493.19;;;12.75;100.00
38620;BME280;24376;51.986;4.662;2022-10-16T03:07:49;107520.44;;;12.69;100.00
38620;BME280;24376;51.986;4.662;2022-10-16T03:10:15;107532.13;;;12.71;100.00
38620;BME280;24376;51.986;4.662;2022-10-16T03:12:40;107570.47;;;12.76;100.00
38620;BME280;24376;51.986;4.662;2022-10-16T03:15:05;107588.16;;;12.77;100.00
38620;BME280;24376;51.986;4.662;2022-10-16T03:17:31;107553.53;;;12.81;100.00
38620;BME280;24376;51.986;4.662;2022-10-16T03:19:57;107595.47;;;12.87;100.00
38620;BME280;24376;51.986;4.662;2022-10-16T03:22:22;107557.50;;;12.92;100.00
38620;BME280;24376;51.986;4.662;2022-10-16T03:24:47;107496.97;;;12.92;100.00
38620;BME280;24376;51.986;4.662;2022-10-16T03:27:12;107524.97;;;12.91;100.00
38620;BME280;24376;51.986;4.662;2022-10-16T03:29:37;107474.19;;;12.92;100.00
38620;BME280;24376;51.986;4.662;2022-10-16T03:32:02;107524.78;;;12.97;100.00
38620;BME280;24376;51.986;4.662;2022-10-16T03:34:28;107483.25;;;12.94;100.00
38620;BME280;24376;51.986;4.662;2022-10-16T03:36:53;107462.75;;;12.92;100.00
38620;BME280;24376;51.986;4.662;2022-10-16T03:39:18;107457.28;;;12.90;100.00
38620;BME280;24376;51.986;4.662;2022-10-16T03:41:44;107461.78;;;12.91;100.00
38620;BME280;24376;51.986;4.662;2022-10-16T03:44:09;107460.69;;;12.89;100.00
38620;BME280;24376;51.986;4.662;2022-10-16T03:46:34;107457.66;;;12.86;100.00
38620;BME280;24376;51.986;4.662;2022-10-16T03:49:00;107474.03;;;12.84;100.00
38620;BME280;24376;51.986;4.662;2022-10-16T03:51:25;107485.50;;;12.84;100.00
38620;BME280;24376;51.986;4.662;2022-10-16T03:53:50;107462.94;;;12.86;100.00
38620;BME280;24376;51.986;4.662;2022-10-16T03:56:15;107514.28;;;12.90;100.00
38620;BME280;24376;51.986;4.662;2022-10-16T03:58:40;107505.44;;;12.89;100.00
38620;BME280;24376;51.986;4.662;2022-10-16T04:01:06;107490.19;;;12.87;100.00
38620;BME280;24376;51.986;4.662;2022-10-16T04:03:31;107535.13;;;12.81;100.00
38620;BME280;24376;51.986;4.662;2022-10-16T04:05:56;107492.66;;;12.78;100.00
38620;BME280;24376;51.986;4.662;2022-10-16T04:08:21;107543.41;;;12.70;100.00
38620;BME280;24376;51.986;4.662;2022-10-16T04:10:46;107579.44;;;12.64;100.00
38620;BME280;24376;51.986;4.662;2022-10-16T04:13:12;107603.69;;;12.61;100.00
38620;BME280;24376;51.986;4.662;2022-10-16T04:15:37;107604.81;;;12.63;100.00
38620;BME280;24376;51.986;4.662;2022-10-16T04:18:05;107645.97;;;12.56;100.00
38620;BME280;24376;51.986;4.662;2022-10-16T04:23:16;107630.00;;;12.54;100.00
38620;BME280;24376;51.986;4.662;2022-10-16T04:26:04;107689.34;;;12.52;100.00
38620;BME280;24376;51.986;4.662;2022-10-16T04:28:29;107722.28;;;12.56;100.00
38620;BME280;24376;51.986;4.662;2022-10-16T04:30:54;107736.63;;;12.65;100.00
38620;BME280;24376;51.986;4.662;2022-10-16T04:33:19;107755.03;;;12.65;100.00
38620;BME280;24376;51.986;4.662;2022-10-16T04:35:44;107753.53;;;12.67;100.00
38620;BME280;24376;51.986;4.662;2022-10-16T04:40:55;107775.72;;;12.69;100.00
38620;BME280;24376;51.986;4.662;2022-10-16T04:43:20;107790.03;;;12.71;100.00
38620;BME280;24376;51.986;4.662;2022-10-16T04:45:46;107803.97;;;12.77;100.00
38620;BME280;24376;51.986;4.662;2022-10-16T04:48:15;107792.34;;;12.82;100.00
38620;BME280;24376;51.986;4.662;2022-10-16T04:50:40;107763.38;;;12.82;100.00
38620;BME280;24376;51.986;4.662;2022-10-16T04:53:06;107748.38;;;12.88;100.00
38620;BME280;24376;51.986;4.662;2022-10-16T04:55:31;107748.75;;;12.91;100.00
38620;BME280;24376;51.986;4.662;2022-10-16T04:57:56;107715.69;;;12.93;100.00
38620;BME280;24376;51.986;4.662;2022-10-16T05:00:22;107698.72;;;12.91;100.00
38620;BME280;24376;51.986;4.662;2022-10-16T05:02:47;107689.69;;;12.89;100.00
38620;BME280;24376;51.986;4.662;2022-10-16T05:05:12;107678.06;;;12.94;100.00
38620;BME280;24376;51.986;4.662;2022-10-16T05:07:37;107663.03;;;12.93;100.00
38620;BME280;24376;51.986;4.662;2022-10-16T05:10:06;107679.00;;;12.95;100.00
38620;BME280;24376;51.986;4.662;2022-10-16T05:12:31;107645.72;;;12.95;100.00
38620;BME280;24376;51.986;4.662;2022-10-16T05:14:56;107628.03;;;12.94;100.00
38620;BME280;24376;51.986;4.662;2022-10-16T05:17:24;107628.22;;;12.96;100.00
38620;BME280;24376;51.986;4.662;2022-10-16T05:19:49;107603.59;;;12.95;100.00
38620;BME280;24376;51.986;4.662;2022-10-16T05:22:14;107610.38;;;13.00;100.00
38620;BME280;24376;51.986;4.662;2022-10-16T05:24:39;107594.75;;;13.09;100.00
38620;BME280;24376;51.986;4.662;2022-10-16T05:27:05;107576.72;;;13.12;100.00
38620;BME280;24376;51.986;4.662;2022-10-16T05:29:30;107577.06;;;13.15;100.00
38620;BME280;24376;51.986;4.662;2022-10-16T05:31:58;107552.25;;;13.13;100.00
38620;BME280;24376;51.986;4.662;2022-10-16T05:34:23;107545.88;;;13.11;100.00
38620;BME280;24376;51.986;4.662;2022-10-16T05:36:48;107528.38;;;13.04;100.00
38620;BME280;24376;51.986;4.662;2022-10-16T05:39:14;107545.66;;;13.02;100.00
38620;BME280;24376;51.986;4.662;2022-10-16T05:41:40;107572.00;;;13.02;100.00
38620;BME280;24376;51.986;4.662;2022-10-16T05:44:05;107606.41;;;13.04;100.00
38620;BME280;24376;51.986;4.662;2022-10-16T05:46:36;107624.13;;;13.05;100.00
38620;BME280;24376;51.986;4.662;2022-10-16T05:49:01;107612.66;;;13.04;100.00
38620;BME280;24376;51.986;4.662;2022-10-16T05:51:26;107644.25;;;13.04;100.00
38620;BME280;24376;51.986;4.662;2022-10-16T05:53:51;107654.78;;;13.04;100.00
38620;BME280;24376;51.986;4.662;2022-10-16T05:56:17;107654.78;;;13.04;100.00
38620;BME280;24376;51.986;4.662;2022-10-16T05:58:42;107656.66;;;13.05;100.00
38620;BME280;24376;51.986;4.662;2022-10-16T06:01:10;107660.03;;;13.04;100.00
38620;BME280;24376;51.986;4.662;2022-10-16T06:03:35;107619.97;;;13.07;100.00
38620;BME280;24376;51.986;4.662;2022-10-16T06:06:07;107615.06;;;13.10;100.00
38620;BME280;24376;51.986;4.662;2022-10-16T06:08:32;107584.03;;;13.15;100.00
38620;BME280;24376;51.986;4.662;2022-10-16T06:11:03;107541.34;;;13.17;100.00
38620;BME280;24376;51.986;4.662;2022-10-16T06:13:29;107479.47;;;13.21;100.00
38620;BME280;24376;51.986;4.662;2022-10-16T06:15:56;107430.59;;;13.23;100.00
38620;BME280;24376;51.986;4.662;2022-10-16T06:18:21;107372.44;;;13.21;100.00
38620;BME280;24376;51.986;4.662;2022-10-16T06:20:47;107310.16;;;13.22;100.00
38620;BME280;24376;51.986;4.662;2022-10-16T06:23:12;107199.34;;;13.20;100.00
38620;BME280;24376;51.986;4.662;2022-10-16T06:25:37;107094.59;;;13.18;100.00
38620;BME280;24376;51.986;4.662;2022-10-16T06:28:02;106949.25;;;13.13;100.00
38620;BME280;24376;51.986;4.662;2022-10-16T06:30:27;106813.44;;;13.15;100.00
38620;BME280;24376;51.986;4.662;2022-10-16T06:32:55;106729.16;;;13.15;100.00
38620;BME280;24376;51.986;4.662;2022-10-16T06:35:25;106595.50;;;13.13;100.00
38620;BME280;24376;51.986;4.662;2022-10-16T06:37:52;106411.84;;;13.19;100.00
38620;BME280;24376;51.986;4.662;2022-10-16T06:40:17;106283.00;;;13.20;100.00
38620;BME280;24376;51.986;4.662;2022-10-16T06:42:42;106314.03;;;13.23;100.00
38620;BME280;24376;51.986;4.662;2022-10-16T06:45:07;106285.81;;;13.22;100.00
38620;BME280;24376;51.986;4.662;2022-10-16T06:47:33;106275.28;;;13.22;100.00
38620;BME280;24376;51.986;4.662;2022-10-16T06:49:58;106297.00;;;13.28;100.00
38620;BME280;24376;51.986;4.662;2022-10-16T06:52:23;106358.66;;;13.30;100.00
38620;BME280;24376;51.986;4.662;2022-10-16T06:54:49;106422.78;;;13.30;100.00
38620;BME280;24376;51.986;4.662;2022-10-16T06:57:14;106529.03;;;13.31;100.00
38620;BME280;24376;51.986;4.662;2022-10-16T06:59:39;106591.16;;;13.29;100.00
38620;BME280;24376;51.986;4.662;2022-10-16T07:02:04;106676.78;;;13.25;100.00
38620;BME280;24376;51.986;4.662;2022-10-16T07:04:30;106733.09;;;13.19;100.00
38620;BME280;24376;51.986;4.662;2022-10-16T07:06:55;106788.03;;;13.16;100.00
38620;BME280;24376;51.986;4.662;2022-10-16T07:09:20;106824.72;;;13.14;100.00
38620;BME280;24376;51.986;4.662;2022-10-16T07:11:45;106870.41;;;13.15;100.00
38620;BME280;24376;51.986;4.662;2022-10-16T07:14:15;106909.84;;;13.06;100.00
38620;BME280;24376;51.986;4.662;2022-10-16T07:16:40;106939.38;;;13.03;100.00
38620;BME280;24376;51.986;4.662;2022-10-16T07:19:06;106989.06;;;13.00;100.00
38620;BME280;24376;51.986;4.662;2022-10-16T07:21:32;107062.16;;;13.03;100.00
38620;BME280;24376;51.986;4.662;2022-10-16T07:24:00;107142.84;;;13.02;100.00
38620;BME280;24376;51.986;4.662;2022-10-16T07:26:26;107189.69;;;13.05;100.00
38620;BME280;24376;51.986;4.662;2022-10-16T07:28:52;107275.59;;;13.12;100.00
38620;BME280;24376;51.986;4.662;2022-10-16T07:31:18;107330.69;;;13.17;100.00
38620;BME280;24376;51.986;4.662;2022-10-16T07:33:43;107384.66;;;13.21;100.00
38620;BME280;24376;51.986;4.662;2022-10-16T07:36:10;107424.56;;;13.24;100.00
38620;BME280;24376;51.986;4.662;2022-10-16T07:38:35;107440.72;;;13.27;100.00
38620;BME280;24376;51.986;4.662;2022-10-16T07:41:01;107503.56;;;13.31;100.00
38620;BME280;24376;51.986;4.662;2022-10-16T07:43:27;107514.47;;;13.34;100.00
38620;BME280;24376;51.986;4.662;2022-10-16T07:45:52;107523.84;;;13.39;100.00
38620;BME280;24376;51.986;4.662;2022-10-16T07:48:18;107530.25;;;13.41;100.00
38620;BME280;24376;51.986;4.662;2022-10-16T07:50:43;107531.38;;;13.43;100.00
38620;BME280;24376;51.986;4.662;2022-10-16T07:53:08;107534.56;;;13.48;100.00
38620;BME280;24376;51.986;4.662;2022-10-16T07:55:34;107532.50;;;13.52;100.00
38620;BME280;24376;51.986;4.662;2022-10-16T07:57:59;107492.97;;;13.52;100.00
38620;BME280;24376;51.986;4.662;2022-10-16T08:00:24;107471.28;;;13.62;100.00
38620;BME280;24376;51.986;4.662;2022-10-16T08:02:49;107443.59;;;13.66;100.00
38620;BME280;24376;51.986;4.662;2022-10-16T08:05:15;107377.88;;;13.74;100.00
38620;BME280;24376;51.986;4.662;2022-10-16T08:07:40;107366.72;;;13.77;100.00
38620;BME280;24376;51.986;4.662;2022-10-16T08:10:05;107345.03;;;13.87;100.00
38620;BME280;24376;51.986;4.662;2022-10-16T08:12:30;107296.97;;;13.89;100.00
38620;BME280;24376;51.986;4.662;2022-10-16T08:14:55;107268.09;;;13.98;100.00
38620;BME280;24376;51.986;4.662;2022-10-16T08:17:21;107245.63;;;14.01;100.00
38620;BME280;24376;51.986;4.662;2022-10-16T08:19:46;107150.47;;;14.07;100.00
38620;BME280;24376;51.986;4.662;2022-10-16T08:22:12;107091.09;;;14.10;100.00
38620;BME280;24376;51.986;4.662;2022-10-16T08:24:37;107040.91;;;14.18;100.00
38620;BME280;24376;51.986;4.662;2022-10-16T08:27:03;106995.63;;;14.22;100.00
38620;BME280;24376;51.986;4.662;2022-10-16T08:29:28;106951.88;;;14.24;100.00
38620;BME280;24376;51.986;4.662;2022-10-16T08:31:53;106938.59;;;14.31;100.00
38620;BME280;24376;51.986;4.662;2022-10-16T08:34:18;106923.13;;;14.43;100.00
38620;BME280;24376;51.986;4.662;2022-10-16T08:36:43;106843.94;;;14.50;100.00
38620;BME280;24376;51.986;4.662;2022-10-16T08:39:09;106815.88;;;14.68;100.00
38620;BME280;24376;51.986;4.662;2022-10-16T08:42:08;106795.22;;;14.63;100.00
38620;BME280;24376;51.986;4.662;2022-10-16T08:49:35;106548.50;;;14.86;100.00
38620;BME280;24376;51.986;4.662;2022-10-16T08:52:00;106473.66;;;14.85;100.00
38620;BME280;24376;51.986;4.662;2022-10-16T08:54:28;106426.75;;;14.92;100.00
38620;BME280;24376;51.986;4.662;2022-10-16T08:56:55;106395.59;;;15.06;100.00
38620;BME280;24376;51.986;4.662;2022-10-16T08:59:21;106347.09;;;15.14;100.00
38620;BME280;24376;51.986;4.662;2022-10-16T09:01:47;106291.81;;;15.07;100.00
38620;BME280;24376;51.986;4.662;2022-10-16T09:12:19;106070.59;;;15.24;100.00
38620;BME280;24376;51.986;4.662;2022-10-16T09:14:50;105997.59;;;15.34;100.00
38620;BME280;24376;51.986;4.662;2022-10-16T09:17:24;106001.06;;;15.43;100.00
38620;BME280;24376;51.986;4.662;2022-10-16T09:19:53;106029.19;;;15.43;100.00
38620;BME280;24376;51.986;4.662;2022-10-16T09:22:21;106008.31;;;15.46;100.00
38620;BME280;24376;51.986;4.662;2022-10-16T09:24:50;105957.47;;;15.49;100.00
38620;BME280;24376;51.986;4.662;2022-10-16T09:27:15;105943.06;;;15.55;100.00
38620;BME280;24376;51.986;4.662;2022-10-16T09:29:40;105948.38;;;15.55;100.00
38620;BME280;24376;51.986;4.662;2022-10-16T09:32:17;105898.41;;;15.58;100.00
38620;BME280;24376;51.986;4.662;2022-10-16T09:34:45;105825.13;;;15.66;100.00
38620;BME280;24376;51.986;4.662;2022-10-16T09:37:14;105815.69;;;15.80;100.00
38620;BME280;24376;51.986;4.662;2022-10-16T09:39:49;105786.34;;;15.77;100.00
38620;BME280;24376;51.986;4.662;2022-10-16T09:42:18;105803.78;;;15.85;100.00
38620;BME280;24376;51.986;4.662;2022-10-16T09:44:47;105846.31;;;15.98;100.00
38620;BME280;24376;51.986;4.662;2022-10-16T09:47:14;105856.78;;;16.29;100.00
38620;BME280;24376;51.986;4.662;2022-10-16T09:49:58;105709.91;;;16.34;100.00
38620;BME280;24376;51.986;4.662;2022-10-16T09:52:27;105502.31;;;16.52;100.00
38620;BME280;24376;51.986;4.662;2022-10-16T09:55:03;105346.50;;;16.68;100.00
38620;BME280;24376;51.986;4.662;2022-10-16T09:57:37;105136.56;;;16.69;100.00
38620;BME280;24376;51.986;4.662;2022-10-16T10:00:04;104982.59;;;16.75;100.00
38620;BME280;24376;51.986;4.662;2022-10-16T10:02:31;104891.69;;;16.74;100.00
38620;BME280;24376;51.986;4.662;2022-10-16T10:04:58;104845.63;;;16.99;100.00
38620;BME280;24376;51.986;4.662;2022-10-16T10:07:27;104825.38;;;17.14;100.00
38620;BME280;24376;51.986;4.662;2022-10-16T10:09:53;104697.34;;;16.99;100.00
38620;BME280;24376;51.986;4.662;2022-10-16T10:12:26;104619.75;;;17.00;100.00
38620;BME280;24376;51.986;4.662;2022-10-16T10:14:53;104504.66;;;17.10;100.00
38620;BME280;24376;51.986;4.662;2022-10-16T10:17:21;104381.47;;;17.33;100.00
38620;BME280;24376;51.986;4.662;2022-10-16T10:27:46;103880.72;;;17.49;100.00
38620;BME280;24376;51.986;4.662;2022-10-16T10:32:46;103600.50;;;17.63;100.00
38620;BME280;24376;51.986;4.662;2022-10-16T10:35:22;103565.91;;;17.80;100.00
38620;BME280;24376;51.986;4.662;2022-10-16T10:37:55;103536.06;;;18.08;100.00
38620;BME280;24376;51.986;4.662;2022-10-16T10:40:30;103322.28;;;17.87;100.00
38620;BME280;24376;51.986;4.662;2022-10-16T10:43:03;103134.59;;;18.02;100.00
38620;BME280;24376;51.986;4.662;2022-10-16T10:48:01;102769.88;;;18.10;100.00
38620;BME280;24376;51.986;4.662;2022-10-16T10:50:49;102560.16;;;17.98;100.00
38620;BME280;24376;51.986;4.662;2022-10-16T10:58:29;102058.69;;;18.22;100.00
38620;BME280;24376;51.986;4.662;2022-10-16T11:03:30;101776.75;;;18.17;100.00
38620;BME280;24376;51.986;4.662;2022-10-16T11:06:08;101653.00;;;18.14;100.00
38620;BME280;24376;51.986;4.662;2022-10-16T11:11:29;101413.56;;;18.11;100.00
38620;BME280;24376;51.986;4.662;2022-10-16T11:16:42;101125.56;;;18.28;100.00
38620;BME280;24376;51.986;4.662;2022-10-16T11:19:21;100910.84;;;18.32;100.00
38620;BME280;24376;51.986;4.662;2022-10-16T11:21:51;100730.44;;;18.51;100.00
38620;BME280;24376;51.986;4.662;2022-10-16T11:24:23;100599.75;;;18.37;100.00
38620;BME280;24376;51.986;4.662;2022-10-16T11:26:55;100513.47;;;18.10;100.00
38620;BME280;24376;51.986;4.662;2022-10-16T11:29:25;100533.06;;;17.92;100.00
38620;BME280;24376;51.986;4.662;2022-10-16T11:31:53;100461.34;;;18.08;100.00
38620;BME280;24376;51.986;4.662;2022-10-16T11:34:24;100469.50;;;17.89;100.00
38620;BME280;24376;51.986;4.662;2022-10-16T11:36:53;100513.75;;;17.77;100.00
38620;BME280;24376;51.986;4.662;2022-10-16T11:39:23;100514.59;;;17.81;100.00
38620;BME280;24376;51.986;4.662;2022-10-16T11:49:42;100448.91;;;18.17;100.00
38620;BME280;24376;51.986;4.662;2022-10-16T11:52:23;101142.31;;;18.53;100.00
38620;BME280;24376;51.986;4.662;2022-10-16T11:57:21;101783.47;;;18.75;100.00
38620;BME280;24376;51.986;4.662;2022-10-16T11:59:49;101903.50;;;18.53;100.00
38620;BME280;24376;51.986;4.662;2022-10-16T12:05:06;101963.31;;;18.26;100.00
38620;BME280;24376;51.986;4.662;2022-10-16T12:07:37;101929.06;;;18.48;100.00
38620;BME280;24376;51.986;4.662;2022-10-16T12:10:24;101839.66;;;18.34;100.00
38620;BME280;24376;51.986;4.662;2022-10-16T12:12:50;101707.88;;;18.23;100.00
38620;BME280;24376;51.986;4.662;2022-10-16T12:15:20;101632.84;;;18.33;100.00
38620;BME280;24376;51.986;4.662;2022-10-16T12:17:46;101540.06;;;18.39;100.00
38620;BME280;24376;51.986;4.662;2022-10-16T12:22:36;101392.47;;;18.49;100.00
38620;BME280;24376;51.986;4.662;2022-10-16T12:25:17;101310.34;;;18.67;100.00
38620;BME280;24376;51.986;4.662;2022-10-16T12:27:44;101289.06;;;18.64;100.00
38620;BME280;24376;51.986;4.662;2022-10-16T12:30:14;101273.16;;;18.59;100.00
38620;BME280;24376;51.986;4.662;2022-10-16T12:32:45;101279.34;;;18.39;100.00
38620;BME280;24376;51.986;4.662;2022-10-16T12:35:19;101285.50;;;18.38;100.00
38620;BME280;24376;51.986;4.662;2022-10-16T12:37:45;101297.00;;;18.37;100.00
38620;BME280;24376;51.986;4.662;2022-10-16T12:40:12;101297.03;;;18.46;100.00
38620;BME280;24376;51.986;4.662;2022-10-16T12:42:38;101285.50;;;18.42;100.00
38620;BME280;24376;51.986;4.662;2022-10-16T12:45:21;101300.56;;;18.51;100.00
38620;BME280;24376;51.986;4.662;2022-10-16T12:47:49;101289.06;;;18.66;100.00
38620;BME280;24376;51.986;4.662;2022-10-16T12:52:52;101234.28;;;18.68;100.00
38620;BME280;24376;51.986;4.662;2022-10-16T12:55:18;101241.38;;;18.73;100.00
38620;BME280;24376;51.986;4.662;2022-10-16T13:00:43;101241.31;;;18.58;100.00
38620;BME280;24376;51.986;4.662;2022-10-16T13:06:01;101334.16;;;18.64;100.00
38620;BME280;24376;51.986;4.662;2022-10-16T13:18:42;100875.25;;;18.76;100.00
38620;BME280;24376;51.986;4.662;2022-10-16T13:26:37;100879.47;;;19.03;100.00
38620;BME280;24376;51.986;4.662;2022-10-16T13:29:06;100874.00;;;19.22;100.00
38620;BME280;24376;51.986;4.662;2022-10-16T13:31:31;100875.81;;;19.20;100.00
38620;BME280;24376;51.986;4.662;2022-10-16T13:33:57;100907.13;;;18.64;100.00
38620;BME280;24376;51.986;4.662;2022-10-16T13:38:57;100911.50;;;18.76;100.00
38620;BME280;24376;51.986;4.662;2022-10-16T13:41:25;100930.09;;;18.67;100.00
38620;BME280;24376;51.986;4.662;2022-10-16T13:43:56;100921.25;;;18.74;100.00
38620;BME280;24376;51.986;4.662;2022-10-16T13:46:22;100907.00;;;18.88;100.00
38620;BME280;24376;51.986;4.662;2022-10-16T13:51:22;100918.50;;;18.87;100.00
38620;BME280;24376;51.986;4.662;2022-10-16T13:53:47;100930.00;;;18.86;100.00
38620;BME280;24376;51.986;4.662;2022-10-16T13:56:17;100945.13;;;18.71;100.00
38620;BME280;24376;51.986;4.662;2022-10-16T13:58:43;100956.59;;;18.77;100.00
38620;BME280;24376;51.986;4.662;2022-10-16T14:01:15;100958.31;;;18.83;100.00
38620;BME280;24376;51.986;4.662;2022-10-16T14:03:41;100973.34;;;18.84;100.00
38620;BME280;24376;51.986;4.662;2022-10-16T14:06:11;100977.72;;;18.93;100.00
38620;BME280;24376;51.986;4.662;2022-10-16T14:08:37;100995.56;;;18.69;100.00
38620;BME280;24376;51.986;4.662;2022-10-16T14:11:06;101006.16;;;18.60;100.00
38620;BME280;24376;51.986;4.662;2022-10-16T14:13:34;101014.09;;;18.65;100.00
38620;BME280;24376;51.986;4.662;2022-10-16T14:16:02;101000.81;;;18.80;100.00
38620;BME280;24376;51.986;4.662;2022-10-16T14:18:30;101014.03;;;18.91;100.00
38620;BME280;24376;51.986;4.662;2022-10-16T14:21:01;101025.63;;;18.68;100.00
38620;BME280;24376;51.986;4.662;2022-10-16T14:23:33;101046.84;;;18.62;100.00
38620;BME280;24376;51.986;4.662;2022-10-16T14:26:41;101055.63;;;18.79;100.00